sensor_id;sensor_type;location;lat;lon;timestamp;temperature;humidity
46652;DHT22;32377;52.182;5.398;2023-07-30T00:01:56;16.90;99.90
46652;DHT22;32377;52.182;5.398;2023-07-30T00:04:22;16.80;99.90
46652;DHT22;32377;52.182;5.398;2023-07-30T00:06:48;16.80;99.90
46652;DHT22;32377;52.182;5.398;2023-07-30T00:09:14;16.80;99.90
46652;DHT22;32377;52.182;5.398;2023-07-30T00:11:39;16.80;99.90
46652;DHT22;32377;52.182;5.398;2023-07-30T00:14:05;16.70;99.90
46652;DHT22;32377;52.182;5.398;2023-07-30T00:16:31;16.70;99.90
46652;DHT22;32377;52.182;5.398;2023-07-30T00:18:57;16.60;99.90
46652;DHT22;32377;52.182;5.398;2023-07-30T00:21:22;16.60;99.90
46652;DHT22;32377;52.182;5.398;2023-07-30T00:23:49;16.60;99.90
46652;DHT22;32377;52.182;5.398;2023-07-30T00:26:14;16.50;99.90
46652;DHT22;32377;52.182;5.398;2023-07-30T00:28:40;16.50;99.90
46652;DHT22;32377;52.182;5.398;2023-07-30T00:31:06;16.50;99.90
46652;DHT22;32377;52.182;5.398;2023-07-30T00:33:31;16.40;99.90
46652;DHT22;32377;52.182;5.398;2023-07-30T00:35:57;16.40;99.90
46652;DHT22;32377;52.182;5.398;2023-07-30T00:38:22;16.40;99.90
46652;DHT22;32377;52.182;5.398;2023-07-30T00:40:49;16.40;99.90
46652;DHT22;32377;52.182;5.398;2023-07-30T00:43:14;16.40;99.90
46652;DHT22;32377;52.182;5.398;2023-07-30T00:45:41;16.30;99.90
46652;DHT22;32377;52.182;5.398;2023-07-30T00:48:08;16.30;99.90
46652;DHT22;32377;52.182;5.398;2023-07-30T00:50:34;16.30;99.90
46652;DHT22;32377;52.182;5.398;2023-07-30T00:53:00;16.30;99.90
46652;DHT22;32377;52.182;5.398;2023-07-30T00:55:26;16.30;99.90
46652;DHT22;32377;52.182;5.398;2023-07-30T00:57:52;16.30;99.90
46652;DHT22;32377;52.182;5.398;2023-07-30T01:00:17;16.30;99.90
46652;DHT22;32377;52.182;5.398;2023-07-30T01:02:43;16.20;99.90
46652;DHT22;32377;52.182;5.398;2023-07-30T01:05:09;16.10;99.90
46652;DHT22;32377;52.182;5.398;2023-07-30T01:07:35;16.10;99.90
46652;DHT22;32377;52.182;5.398;2023-07-30T01:10:01;16.10;99.90
46652;DHT22;32377;52.182;5.398;2023-07-30T01:12:29;16.10;99.90
46652;DHT22;32377;52.182;5.398;2023-07-30T01:14:55;16.00;99.90
46652;DHT22;32377;52.182;5.398;2023-07-30T01:17:22;16.00;99.90
46652;DHT22;32377;52.182;5.398;2023-07-30T01:19:48;16.00;99.90
46652;DHT22;32377;52.182;5.398;2023-07-30T01:22:15;16.00;99.90
46652;DHT22;32377;52.182;5.398;2023-07-30T01:24:41;16.00;99.90
46652;DHT22;32377;52.182;5.398;2023-07-30T01:27:11;16.00;99.90
46652;DHT22;32377;52.182;5.398;2023-07-30T01:29:49;15.90;99.90
46652;DHT22;32377;52.182;5.398;2023-07-30T01:32:17;15.90;99.90
46652;DHT22;32377;52.182;5.398;2023-07-30T01:34:47;15.90;99.90
46652;DHT22;32377;52.182;5.398;2023-07-30T01:37:15;15.90;99.90
46652;DHT22;32377;52.182;5.398;2023-07-30T01:39:42;15.90;99.90
46652;DHT22;32377;52.182;5.398;2023-07-30T01:42:12;15.90;99.90
46652;DHT22;32377;52.182;5.398;2023-07-30T01:44:37;16.00;99.90
46652;DHT22;32377;52.182;5.398;2023-07-30T01:47:03;16.00;99.90
46652;DHT22;32377;52.182;5.398;2023-07-30T01:49:29;16.00;99.90
46652;DHT22;32377;52.182;5.398;2023-07-30T01:51:54;16.00;99.90
46652;DHT22;32377;52.182;5.398;2023-07-30T01:54:20;16.00;99.90
46652;DHT22;32377;52.182;5.398;2023-07-30T01:56:45;16.00;99.90
46652;DHT22;32377;52.182;5.398;2023-07-30T01:59:11;16.10;99.90
46652;DHT22;32377;52.182;5.398;2023-07-30T02:01:36;16.10;99.90
46652;DHT22;32377;52.182;5.398;2023-07-30T02:04:02;16.10;99.90
46652;DHT22;32377;52.182;5.398;2023-07-30T02:06:28;16.10;99.90
46652;DHT22;32377;52.182;5.398;2023-07-30T02:08:53;16.10;99.90
46652;DHT22;32377;52.182;5.398;2023-07-30T02:11:19;16.20;99.90
46652;DHT22;32377;52.182;5.398;2023-07-30T02:13:44;16.10;99.90
46652;DHT22;32377;52.182;5.398;2023-07-30T02:16:10;16.10;99.90
46652;DHT22;32377;52.182;5.398;2023-07-30T02:18:36;16.10;99.90
46652;DHT22;32377;52.182;5.398;2023-07-30T02:21:01;16.10;99.90
46652;DHT22;32377;52.182;5.398;2023-07-30T02:23:27;16.10;99.90
46652;DHT22;32377;52.182;5.398;2023-07-30T02:25:53;16.10;99.90
46652;DHT22;32377;52.182;5.398;2023-07-30T02:28:18;16.10;99.90
46652;DHT22;32377;52.182;5.398;2023-07-30T02:30:44;16.20;99.90
46652;DHT22;32377;52.182;5.398;2023-07-30T02:33:10;16.20;99.90
46652;DHT22;32377;52.182;5.398;2023-07-30T02:35:35;16.10;99.90
46652;DHT22;32377;52.182;5.398;2023-07-30T02:38:01;16.20;99.90
46652;DHT22;32377;52.182;5.398;2023-07-30T02:40:26;16.10;99.90
46652;DHT22;32377;52.182;5.398;2023-07-30T02:42:52;16.10;99.90
46652;DHT22;32377;52.182;5.398;2023-07-30T02:45:18;16.10;99.90
46652;DHT22;32377;52.182;5.398;2023-07-30T02:47:43;16.10;99.90
46652;DHT22;32377;52.182;5.398;2023-07-30T02:50:09;16.10;99.90
46652;DHT22;32377;52.182;5.398;2023-07-30T02:52:35;16.10;99.90
46652;DHT22;32377;52.182;5.398;2023-07-30T02:55:00;16.10;99.90
46652;DHT22;32377;52.182;5.398;2023-07-30T02:57:26;16.10;99.90
46652;DHT22;32377;52.182;5.398;2023-07-30T02:59:52;16.10;99.90
46652;DHT22;32377;52.182;5.398;2023-07-30T03:02:17;16.10;99.90
46652;DHT22;32377;52.182;5.398;2023-07-30T03:04:43;16.10;99.90
46652;DHT22;32377;52.182;5.398;2023-07-30T03:07:09;16.00;99.90
46652;DHT22;32377;52.182;5.398;2023-07-30T03:09:35;15.90;99.90
46652;DHT22;32377;52.182;5.398;2023-07-30T03:12:01;15.90;99.90
46652;DHT22;32377;52.182;5.398;2023-07-30T03:14:27;15.90;99.90
46652;DHT22;32377;52.182;5.398;2023-07-30T03:16:53;15.90;99.90
46652;DHT22;32377;52.182;5.398;2023-07-30T03:19:18;15.80;99.90
46652;DHT22;32377;52.182;5.398;2023-07-30T03:21:44;15.80;99.90
46652;DHT22;32377;52.182;5.398;2023-07-30T03:24:10;15.80;99.90
46652;DHT22;32377;52.182;5.398;2023-07-30T03:26:35;15.80;99.90
46652;DHT22;32377;52.182;5.398;2023-07-30T03:29:01;15.70;99.90
46652;DHT22;32377;52.182;5.398;2023-07-30T03:31:26;15.70;99.90
46652;DHT22;32377;52.182;5.398;2023-07-30T03:33:54;15.70;99.90
46652;DHT22;32377;52.182;5.398;2023-07-30T03:36:19;15.70;99.90
46652;DHT22;32377;52.182;5.398;2023-07-30T03:38:45;15.70;99.90
46652;DHT22;32377;52.182;5.398;2023-07-30T03:41:11;15.70;99.90
46652;DHT22;32377;52.182;5.398;2023-07-30T03:43:37;15.60;99.90
46652;DHT22;32377;52.182;5.398;2023-07-30T03:46:02;15.60;99.90
46652;DHT22;32377;52.182;5.398;2023-07-30T03:48:28;15.60;99.90
46652;DHT22;32377;52.182;5.398;2023-07-30T03:50:54;15.60;99.90
46652;DHT22;32377;52.182;5.398;2023-07-30T03:53:20;15.60;99.90
46652;DHT22;32377;52.182;5.398;2023-07-30T03:58:56;15.60;99.90
46652;DHT22;32377;52.182;5.398;2023-07-30T04:01:22;15.60;99.90
46652;DHT22;32377;52.182;5.398;2023-07-30T04:03:48;15.60;99.90
46652;DHT22;32377;52.182;5.398;2023-07-30T04:06:13;15.60;99.90
46652;DHT22;32377;52.182;5.398;2023-07-30T04:08:39;15.70;99.90
46652;DHT22;32377;52.182;5.398;2023-07-30T04:11:04;15.70;99.90
46652;DHT22;32377;52.182;5.398;2023-07-30T04:13:30;15.70;99.90
46652;DHT22;32377;52.182;5.398;2023-07-30T04:15:55;15.70;99.90
46652;DHT22;32377;52.182;5.398;2023-07-30T04:18:21;15.70;99.90
46652;DHT22;32377;52.182;5.398;2023-07-30T04:20:48;15.80;99.90
46652;DHT22;32377;52.182;5.398;2023-07-30T04:23:14;15.80;99.90
46652;DHT22;32377;52.182;5.398;2023-07-30T04:25:39;15.80;99.90
46652;DHT22;32377;52.182;5.398;2023-07-30T04:28:05;15.90;99.90
46652;DHT22;32377;52.182;5.398;2023-07-30T04:30:31;15.90;99.90
46652;DHT22;32377;52.182;5.398;2023-07-30T04:32:57;15.90;99.90
46652;DHT22;32377;52.182;5.398;2023-07-30T04:35:22;16.00;99.90
46652;DHT22;32377;52.182;5.398;2023-07-30T04:37:48;16.00;99.90
46652;DHT22;32377;52.182;5.398;2023-07-30T04:40:14;16.00;99.90
46652;DHT22;32377;52.182;5.398;2023-07-30T04:42:39;16.00;99.90
46652;DHT22;32377;52.182;5.398;2023-07-30T04:45:05;16.00;99.90
46652;DHT22;32377;52.182;5.398;2023-07-30T04:47:31;16.00;99.90
46652;DHT22;32377;52.182;5.398;2023-07-30T04:49:57;16.10;99.90
46652;DHT22;32377;52.182;5.398;2023-07-30T04:52:22;16.10;99.90
46652;DHT22;32377;52.182;5.398;2023-07-30T04:54:48;16.10;99.90
46652;DHT22;32377;52.182;5.398;2023-07-30T04:57:13;16.20;99.90
46652;DHT22;32377;52.182;5.398;2023-07-30T04:59:39;16.20;99.90
46652;DHT22;32377;52.182;5.398;2023-07-30T05:02:05;16.20;99.90
46652;DHT22;32377;52.182;5.398;2023-07-30T05:04:31;16.30;99.90
46652;DHT22;32377;52.182;5.398;2023-07-30T05:06:56;16.30;99.90
46652;DHT22;32377;52.182;5.398;2023-07-30T05:09:22;16.40;99.90
46652;DHT22;32377;52.182;5.398;2023-07-30T05:11:47;16.40;99.90
46652;DHT22;32377;52.182;5.398;2023-07-30T05:14:15;16.40;99.90
46652;DHT22;32377;52.182;5.398;2023-07-30T05:16:41;16.50;99.90
46652;DHT22;32377;52.182;5.398;2023-07-30T05:19:07;16.60;99.90
46652;DHT22;32377;52.182;5.398;2023-07-30T05:21:33;16.60;99.90
46652;DHT22;32377;52.182;5.398;2023-07-30T05:23:59;16.70;99.90
46652;DHT22;32377;52.182;5.398;2023-07-30T05:26:24;16.80;99.90
46652;DHT22;32377;52.182;5.398;2023-07-30T05:28:50;16.80;99.90
46652;DHT22;32377;52.182;5.398;2023-07-30T05:31:16;16.80;99.90
46652;DHT22;32377;52.182;5.398;2023-07-30T05:33:41;16.80;99.90
46652;DHT22;32377;52.182;5.398;2023-07-30T05:36:07;16.80;99.90
46652;DHT22;32377;52.182;5.398;2023-07-30T05:38:33;16.90;99.90
46652;DHT22;32377;52.182;5.398;2023-07-30T05:40:59;16.90;99.90
46652;DHT22;32377;52.182;5.398;2023-07-30T05:43:24;16.90;99.90
46652;DHT22;32377;52.182;5.398;2023-07-30T05:45:50;17.00;99.90
46652;DHT22;32377;52.182;5.398;2023-07-30T05:48:16;17.00;99.90
46652;DHT22;32377;52.182;5.398;2023-07-30T05:50:41;17.00;99.90
46652;DHT22;32377;52.182;5.398;2023-07-30T05:53:07;17.10;99.90
46652;DHT22;32377;52.182;5.398;2023-07-30T05:55:33;17.10;99.90
46652;DHT22;32377;52.182;5.398;2023-07-30T05:57:58;17.30;99.90
46652;DHT22;32377;52.182;5.398;2023-07-30T06:00:24;17.40;99.90
46652;DHT22;32377;52.182;5.398;2023-07-30T06:02:49;17.50;99.90
46652;DHT22;32377;52.182;5.398;2023-07-30T06:05:15;17.50;99.90
46652;DHT22;32377;52.182;5.398;2023-07-30T06:07:41;17.50;99.90
46652;DHT22;32377;52.182;5.398;2023-07-30T06:10:07;17.60;99.90
46652;DHT22;32377;52.182;5.398;2023-07-30T06:12:32;17.70;99.90
46652;DHT22;32377;52.182;5.398;2023-07-30T06:14:58;17.60;99.90
46652;DHT22;32377;52.182;5.398;2023-07-30T06:17:24;17.60;99.90
46652;DHT22;32377;52.182;5.398;2023-07-30T06:19:49;17.70;99.90
46652;DHT22;32377;52.182;5.398;2023-07-30T06:22:15;17.70;99.90
46652;DHT22;32377;52.182;5.398;2023-07-30T06:24:40;17.60;99.90
46652;DHT22;32377;52.182;5.398;2023-07-30T06:27:06;17.50;99.90
46652;DHT22;32377;52.182;5.398;2023-07-30T06:29:32;17.60;99.90
46652;DHT22;32377;52.182;5.398;2023-07-30T06:31:57;17.70;99.90
46652;DHT22;32377;52.182;5.398;2023-07-30T06:34:23;17.70;99.90
46652;DHT22;32377;52.182;5.398;2023-07-30T06:36:48;17.70;99.90
46652;DHT22;32377;52.182;5.398;2023-07-30T06:39:14;17.70;99.90
46652;DHT22;32377;52.182;5.398;2023-07-30T06:41:40;17.70;99.90
46652;DHT22;32377;52.182;5.398;2023-07-30T06:44:05;17.80;99.90
46652;DHT22;32377;52.182;5.398;2023-07-30T06:46:31;17.80;99.90
46652;DHT22;32377;52.182;5.398;2023-07-30T06:48:56;17.70;99.90
46652;DHT22;32377;52.182;5.398;2023-07-30T06:51:24;17.70;99.90
46652;DHT22;32377;52.182;5.398;2023-07-30T06:53:53;17.70;99.90
46652;DHT22;32377;52.182;5.398;2023-07-30T06:56:18;17.70;99.90
46652;DHT22;32377;52.182;5.398;2023-07-30T06:58:44;17.70;99.90
46652;DHT22;32377;52.182;5.398;2023-07-30T07:01:10;17.60;99.90
46652;DHT22;32377;52.182;5.398;2023-07-30T07:03:35;17.70;99.90
46652;DHT22;32377;52.182;5.398;2023-07-30T07:06:01;17.70;99.90
46652;DHT22;32377;52.182;5.398;2023-07-30T07:08:26;17.60;99.90
46652;DHT22;32377;52.182;5.398;2023-07-30T07:10:52;17.60;99.90
46652;DHT22;32377;52.182;5.398;2023-07-30T07:13:18;17.60;99.90
46652;DHT22;32377;52.182;5.398;2023-07-30T07:15:44;17.60;99.90
46652;DHT22;32377;52.182;5.398;2023-07-30T07:18:10;17.70;99.90
46652;DHT22;32377;52.182;5.398;2023-07-30T07:20:37;17.70;99.90
46652;DHT22;32377;52.182;5.398;2023-07-30T07:23:03;17.70;99.90
46652;DHT22;32377;52.182;5.398;2023-07-30T07:25:29;17.90;99.90
46652;DHT22;32377;52.182;5.398;2023-07-30T07:27:55;17.90;99.90
46652;DHT22;32377;52.182;5.398;2023-07-30T07:30:20;18.10;99.90
46652;DHT22;32377;52.182;5.398;2023-07-30T07:32:46;18.10;99.90
46652;DHT22;32377;52.182;5.398;2023-07-30T07:35:16;18.20;99.90
46652;DHT22;32377;52.182;5.398;2023-07-30T07:37:42;18.40;99.90
46652;DHT22;32377;52.182;5.398;2023-07-30T07:40:08;18.50;99.90
46652;DHT22;32377;52.182;5.398;2023-07-30T07:42:35;18.60;99.90
46652;DHT22;32377;52.182;5.398;2023-07-30T07:45:01;18.70;99.90
46652;DHT22;32377;52.182;5.398;2023-07-30T07:47:26;18.80;99.90
46652;DHT22;32377;52.182;5.398;2023-07-30T07:49:52;18.90;99.90
46652;DHT22;32377;52.182;5.398;2023-07-30T07:52:17;18.90;99.90
46652;DHT22;32377;52.182;5.398;2023-07-30T07:54:44;19.10;99.90
46652;DHT22;32377;52.182;5.398;2023-07-30T07:57:10;18.90;99.90
46652;DHT22;32377;52.182;5.398;2023-07-30T07:59:36;19.00;99.90
46652;DHT22;32377;52.182;5.398;2023-07-30T08:02:02;19.00;99.90
46652;DHT22;32377;52.182;5.398;2023-07-30T08:04:27;18.90;99.90
46652;DHT22;32377;52.182;5.398;2023-07-30T08:06:53;19.00;99.90
46652;DHT22;32377;52.182;5.398;2023-07-30T08:09:19;19.00;99.90
46652;DHT22;32377;52.182;5.398;2023-07-30T08:11:44;19.00;99.90
46652;DHT22;32377;52.182;5.398;2023-07-30T08:14:10;19.10;99.90
46652;DHT22;32377;52.182;5.398;2023-07-30T08:16:36;19.00;99.90
46652;DHT22;32377;52.182;5.398;2023-07-30T08:19:01;18.80;99.90
46652;DHT22;32377;52.182;5.398;2023-07-30T08:21:27;18.80;99.90
46652;DHT22;32377;52.182;5.398;2023-07-30T08:23:53;18.70;99.90
46652;DHT22;32377;52.182;5.398;2023-07-30T08:26:18;18.50;99.90
46652;DHT22;32377;52.182;5.398;2023-07-30T08:28:44;18.40;99.90
46652;DHT22;32377;52.182;5.398;2023-07-30T08:31:09;18.30;99.90
46652;DHT22;32377;52.182;5.398;2023-07-30T08:33:35;18.30;99.90
46652;DHT22;32377;52.182;5.398;2023-07-30T08:36:01;18.20;99.90
46652;DHT22;32377;52.182;5.398;2023-07-30T08:38:27;18.00;99.90
46652;DHT22;32377;52.182;5.398;2023-07-30T08:40:53;17.90;99.90
46652;DHT22;32377;52.182;5.398;2023-07-30T08:43:19;17.90;99.90
46652;DHT22;32377;52.182;5.398;2023-07-30T08:45:45;17.90;99.90
46652;DHT22;32377;52.182;5.398;2023-07-30T08:48:10;17.90;99.90
46652;DHT22;32377;52.182;5.398;2023-07-30T08:50:36;17.80;99.90
46652;DHT22;32377;52.182;5.398;2023-07-30T08:53:02;17.90;99.90
46652;DHT22;32377;52.182;5.398;2023-07-30T08:55:29;18.10;99.90
46652;DHT22;32377;52.182;5.398;2023-07-30T08:57:59;18.20;99.90
46652;DHT22;32377;52.182;5.398;2023-07-30T09:00:25;18.30;99.90
46652;DHT22;32377;52.182;5.398;2023-07-30T09:02:54;18.30;99.90
46652;DHT22;32377;52.182;5.398;2023-07-30T09:05:20;18.50;99.90
46652;DHT22;32377;52.182;5.398;2023-07-30T09:07:46;18.70;99.90
46652;DHT22;32377;52.182;5.398;2023-07-30T09:10:12;18.70;99.90
46652;DHT22;32377;52.182;5.398;2023-07-30T09:12:39;18.80;99.90
46652;DHT22;32377;52.182;5.398;2023-07-30T09:15:05;18.90;99.90
46652;DHT22;32377;52.182;5.398;2023-07-30T09:17:32;19.00;99.90
46652;DHT22;32377;52.182;5.398;2023-07-30T09:20:02;19.10;99.90
46652;DHT22;32377;52.182;5.398;2023-07-30T09:22:31;19.30;99.90
46652;DHT22;32377;52.182;5.398;2023-07-30T09:25:04;19.30;99.90
46652;DHT22;32377;52.182;5.398;2023-07-30T09:27:31;19.40;99.90
46652;DHT22;32377;52.182;5.398;2023-07-30T09:29:59;19.50;99.90
46652;DHT22;32377;52.182;5.398;2023-07-30T09:32:30;19.40;99.90
46652;DHT22;32377;52.182;5.398;2023-07-30T09:35:10;19.40;99.90
46652;DHT22;32377;52.182;5.398;2023-07-30T09:37:38;19.20;99.90
46652;DHT22;32377;52.182;5.398;2023-07-30T09:40:09;19.20;99.90
46652;DHT22;32377;52.182;5.398;2023-07-30T09:42:35;19.10;99.90
46652;DHT22;32377;52.182;5.398;2023-07-30T09:45:05;19.00;99.90
46652;DHT22;32377;52.182;5.398;2023-07-30T09:47:32;18.80;99.90
46652;DHT22;32377;52.182;5.398;2023-07-30T09:50:02;19.10;99.90
46652;DHT22;32377;52.182;5.398;2023-07-30T09:52:29;19.50;99.90
46652;DHT22;32377;52.182;5.398;2023-07-30T09:54:57;19.70;99.90
46652;DHT22;32377;52.182;5.398;2023-07-30T09:58:56;20.20;99.90
46652;DHT22;32377;52.182;5.398;2023-07-30T10:01:23;20.60;99.90
46652;DHT22;32377;52.182;5.398;2023-07-30T10:03:51;20.90;99.90
46652;DHT22;32377;52.182;5.398;2023-07-30T10:06:18;21.10;99.90
46652;DHT22;32377;52.182;5.398;2023-07-30T10:08:45;21.10;99.90
46652;DHT22;32377;52.182;5.398;2023-07-30T10:11:14;20.80;99.90
46652;DHT22;32377;52.182;5.398;2023-07-30T10:13:40;20.70;99.90
46652;DHT22;32377;52.182;5.398;2023-07-30T10:16:10;20.40;99.90
46652;DHT22;32377;52.182;5.398;2023-07-30T10:18:40;20.30;99.90
46652;DHT22;32377;52.182;5.398;2023-07-30T10:21:10;20.30;99.90
46652;DHT22;32377;52.182;5.398;2023-07-30T10:23:46;20.30;99.90
46652;DHT22;32377;52.182;5.398;2023-07-30T10:26:12;20.50;99.90
46652;DHT22;32377;52.182;5.398;2023-07-30T10:28:37;20.40;99.90
46652;DHT22;32377;52.182;5.398;2023-07-30T10:31:09;20.30;99.90
46652;DHT22;32377;52.182;5.398;2023-07-30T10:33:50;20.40;99.90
46652;DHT22;32377;52.182;5.398;2023-07-30T10:36:40;20.60;99.90
46652;DHT22;32377;52.182;5.398;2023-07-30T10:41:37;20.90;99.90
46652;DHT22;32377;52.182;5.398;2023-07-30T10:44:03;20.90;99.90
46652;DHT22;32377;52.182;5.398;2023-07-30T10:46:29;20.70;99.90
46652;DHT22;32377;52.182;5.398;2023-07-30T10:48:55;20.70;99.90
46652;DHT22;32377;52.182;5.398;2023-07-30T10:51:21;20.60;99.90
46652;DHT22;32377;52.182;5.398;2023-07-30T10:53:48;20.60;99.90
46652;DHT22;32377;52.182;5.398;2023-07-30T10:56:17;20.50;99.90
46652;DHT22;32377;52.182;5.398;2023-07-30T10:58:43;20.50;99.90
46652;DHT22;32377;52.182;5.398;2023-07-30T11:01:13;20.60;99.90
46652;DHT22;32377;52.182;5.398;2023-07-30T11:03:39;20.70;99.90
46652;DHT22;32377;52.182;5.398;2023-07-30T11:06:04;20.70;99.90
46652;DHT22;32377;52.182;5.398;2023-07-30T11:08:36;20.80;99.90
46652;DHT22;32377;52.182;5.398;2023-07-30T11:11:02;20.90;99.90
46652;DHT22;32377;52.182;5.398;2023-07-30T11:13:28;21.00;99.90
46652;DHT22;32377;52.182;5.398;2023-07-30T11:15:54;20.90;99.90
46652;DHT22;32377;52.182;5.398;2023-07-30T11:18:20;20.60;99.90
46652;DHT22;32377;52.182;5.398;2023-07-30T11:20:45;20.50;99.90
46652;DHT22;32377;52.182;5.398;2023-07-30T11:23:21;20.40;99.90
46652;DHT22;32377;52.182;5.398;2023-07-30T11:25:49;20.60;99.90
46652;DHT22;32377;52.182;5.398;2023-07-30T11:28:36;20.40;99.90
46652;DHT22;32377;52.182;5.398;2023-07-30T11:31:07;20.30;99.90
46652;DHT22;32377;52.182;5.398;2023-07-30T11:33:39;20.30;99.90
46652;DHT22;32377;52.182;5.398;2023-07-30T11:36:08;20.30;99.90
46652;DHT22;32377;52.182;5.398;2023-07-30T11:38:35;20.20;99.90
46652;DHT22;32377;52.182;5.398;2023-07-30T11:41:01;20.30;99.90
46652;DHT22;32377;52.182;5.398;2023-07-30T11:43:27;20.50;99.90
46652;DHT22;32377;52.182;5.398;2023-07-30T11:46:14;20.80;99.90
46652;DHT22;32377;52.182;5.398;2023-07-30T11:48:41;21.10;99.90
46652;DHT22;32377;52.182;5.398;2023-07-30T11:51:27;21.30;99.90
46652;DHT22;32377;52.182;5.398;2023-07-30T11:53:54;21.40;99.90
46652;DHT22;32377;52.182;5.398;2023-07-30T11:56:23;21.50;99.90
46652;DHT22;32377;52.182;5.398;2023-07-30T11:58:53;21.70;99.10
46652;DHT22;32377;52.182;5.398;2023-07-30T12:01:19;21.60;99.40
46652;DHT22;32377;52.182;5.398;2023-07-30T12:03:45;21.60;99.30
46652;DHT22;32377;52.182;5.398;2023-07-30T12:06:12;21.60;99.30
46652;DHT22;32377;52.182;5.398;2023-07-30T12:08:38;21.40;99.20
46652;DHT22;32377;52.182;5.398;2023-07-30T12:11:05;21.30;99.90
46652;DHT22;32377;52.182;5.398;2023-07-30T12:13:31;21.00;99.90
46652;DHT22;32377;52.182;5.398;2023-07-30T12:15:58;20.80;99.90
46652;DHT22;32377;52.182;5.398;2023-07-30T12:18:25;20.70;99.90
46652;DHT22;32377;52.182;5.398;2023-07-30T12:20:52;20.80;99.90
46652;DHT22;32377;52.182;5.398;2023-07-30T12:23:19;21.20;99.90
46652;DHT22;32377;52.182;5.398;2023-07-30T12:25:45;21.30;99.90
46652;DHT22;32377;52.182;5.398;2023-07-30T12:28:11;21.30;99.90
46652;DHT22;32377;52.182;5.398;2023-07-30T12:30:37;21.40;99.90
46652;DHT22;32377;52.182;5.398;2023-07-30T12:33:03;21.60;99.90
46652;DHT22;32377;52.182;5.398;2023-07-30T12:35:30;21.60;98.90
46652;DHT22;32377;52.182;5.398;2023-07-30T12:37:56;21.70;99.30
46652;DHT22;32377;52.182;5.398;2023-07-30T12:40:22;21.70;98.40
46652;DHT22;32377;52.182;5.398;2023-07-30T12:42:48;21.80;97.80
46652;DHT22;32377;52.182;5.398;2023-07-30T12:45:13;21.90;98.40
46652;DHT22;32377;52.182;5.398;2023-07-30T12:47:40;21.80;97.60
46652;DHT22;32377;52.182;5.398;2023-07-30T12:50:06;21.70;97.60
46652;DHT22;32377;52.182;5.398;2023-07-30T12:52:32;21.70;98.40
46652;DHT22;32377;52.182;5.398;2023-07-30T12:54:58;21.60;98.60
46652;DHT22;32377;52.182;5.398;2023-07-30T12:57:24;21.40;98.30
46652;DHT22;32377;52.182;5.398;2023-07-30T12:59:50;21.30;99.10
46652;DHT22;32377;52.182;5.398;2023-07-30T13:02:15;21.10;98.90
46652;DHT22;32377;52.182;5.398;2023-07-30T13:04:41;21.40;99.60
46652;DHT22;32377;52.182;5.398;2023-07-30T13:07:07;21.70;97.00
46652;DHT22;32377;52.182;5.398;2023-07-30T13:09:32;22.00;97.50
46652;DHT22;32377;52.182;5.398;2023-07-30T13:11:58;22.10;97.20
46652;DHT22;32377;52.182;5.398;2023-07-30T13:14:24;22.30;96.90
46652;DHT22;32377;52.182;5.398;2023-07-30T13:16:49;22.30;94.30
46652;DHT22;32377;52.182;5.398;2023-07-30T13:19:15;22.00;93.90
46652;DHT22;32377;52.182;5.398;2023-07-30T13:21:41;21.80;94.50
46652;DHT22;32377;52.182;5.398;2023-07-30T13:24:06;21.60;95.90
46652;DHT22;32377;52.182;5.398;2023-07-30T13:26:32;21.50;96.40
46652;DHT22;32377;52.182;5.398;2023-07-30T13:28:58;21.50;96.60
46652;DHT22;32377;52.182;5.398;2023-07-30T13:31:23;21.40;97.10
46652;DHT22;32377;52.182;5.398;2023-07-30T13:33:49;21.40;96.30
46652;DHT22;32377;52.182;5.398;2023-07-30T13:36:16;21.40;96.40
46652;DHT22;32377;52.182;5.398;2023-07-30T13:38:42;21.40;95.10
46652;DHT22;32377;52.182;5.398;2023-07-30T13:41:09;21.40;94.80
46652;DHT22;32377;52.182;5.398;2023-07-30T13:43:34;21.40;95.00
46652;DHT22;32377;52.182;5.398;2023-07-30T13:46:00;21.40;94.80
46652;DHT22;32377;52.182;5.398;2023-07-30T13:48:26;21.40;94.10
46652;DHT22;32377;52.182;5.398;2023-07-30T13:50:52;21.50;94.80
46652;DHT22;32377;52.182;5.398;2023-07-30T13:53:18;21.70;94.40
46652;DHT22;32377;52.182;5.398;2023-07-30T13:55:44;21.90;93.70
46652;DHT22;32377;52.182;5.398;2023-07-30T13:58:10;21.90;94.50
46652;DHT22;32377;52.182;5.398;2023-07-30T14:00:36;21.90;94.30
46652;DHT22;32377;52.182;5.398;2023-07-30T14:03:02;21.90;94.20
46652;DHT22;32377;52.182;5.398;2023-07-30T14:05:27;22.20;94.10
46652;DHT22;32377;52.182;5.398;2023-07-30T14:07:54;22.40;94.60
46652;DHT22;32377;52.182;5.398;2023-07-30T14:10:22;22.40;95.10
46652;DHT22;32377;52.182;5.398;2023-07-30T14:12:48;22.40;94.80
46652;DHT22;32377;52.182;5.398;2023-07-30T14:15:14;22.40;94.10
46652;DHT22;32377;52.182;5.398;2023-07-30T14:17:41;22.30;95.10
46652;DHT22;32377;52.182;5.398;2023-07-30T14:20:07;22.00;94.80
46652;DHT22;32377;52.182;5.398;2023-07-30T14:22:34;21.90;94.90
46652;DHT22;32377;52.182;5.398;2023-07-30T14:24:59;21.80;95.30
46652;DHT22;32377;52.182;5.398;2023-07-30T14:27:25;22.00;95.40
46652;DHT22;32377;52.182;5.398;2023-07-30T14:29:51;22.10;95.70
46652;DHT22;32377;52.182;5.398;2023-07-30T14:32:19;22.00;95.00
46652;DHT22;32377;52.182;5.398;2023-07-30T14:34:44;21.70;95.60
46652;DHT22;32377;52.182;5.398;2023-07-30T14:37:10;21.80;96.40
46652;DHT22;32377;52.182;5.398;2023-07-30T14:39:36;21.60;96.30
46652;DHT22;32377;52.182;5.398;2023-07-30T14:42:01;21.50;97.20
46652;DHT22;32377;52.182;5.398;2023-07-30T14:44:27;21.40;97.50
46652;DHT22;32377;52.182;5.398;2023-07-30T14:46:53;21.20;97.70
46652;DHT22;32377;52.182;5.398;2023-07-30T14:49:19;21.20;98.50
46652;DHT22;32377;52.182;5.398;2023-07-30T14:51:45;21.10;98.20
46652;DHT22;32377;52.182;5.398;2023-07-30T14:54:11;21.20;98.30
46652;DHT22;32377;52.182;5.398;2023-07-30T14:56:37;21.10;97.80
46652;DHT22;32377;52.182;5.398;2023-07-30T14:59:02;21.10;97.80
46652;DHT22;32377;52.182;5.398;2023-07-30T15:01:29;21.00;97.50
46652;DHT22;32377;52.182;5.398;2023-07-30T15:03:55;21.00;97.20
46652;DHT22;32377;52.182;5.398;2023-07-30T15:06:21;21.10;97.10
46652;DHT22;32377;52.182;5.398;2023-07-30T15:08:47;21.10;96.40
46652;DHT22;32377;52.182;5.398;2023-07-30T15:11:12;21.20;95.90
46652;DHT22;32377;52.182;5.398;2023-07-30T15:13:39;21.10;95.30
46652;DHT22;32377;52.182;5.398;2023-07-30T15:16:05;21.10;96.00
46652;DHT22;32377;52.182;5.398;2023-07-30T15:18:30;21.20;95.60
46652;DHT22;32377;52.182;5.398;2023-07-30T15:20:56;21.20;96.30
46652;DHT22;32377;52.182;5.398;2023-07-30T15:23:22;21.20;96.70
46652;DHT22;32377;52.182;5.398;2023-07-30T15:25:47;21.20;97.30
46652;DHT22;32377;52.182;5.398;2023-07-30T15:28:14;21.10;97.50
46652;DHT22;32377;52.182;5.398;2023-07-30T15:30:40;21.20;97.60
46652;DHT22;32377;52.182;5.398;2023-07-30T15:33:08;21.30;96.00